Overview Statistics Trail Chart Weather Telemetry Raw packets
 

This is the latest recevied weather packets stored in our database for station/object KQ4TV-2. If no packets are shown the sender has not sent any weather packets the latest 10 day(s).

<< 1 2 3 4 5 6 >>
Time Temp. Humidity Pressure Rain* Wind** Luminosity Snow
1788117524 33.33° C 51% - 0 mm - - -
1788116521 33.89° C 53% - 0 mm - - -
1788115475 33.33° C 55% - 0 mm - - -
1788115435 33.33° C 56% - 0 mm - - -
1788115314 33.33° C 56% - 0 mm - - -
1788114468 33.33° C 54% - 0 mm - - -
1788113766 32.78° C 56% - 0 mm - - -
1788113645 32.78° C 55% - 0 mm - - -
1788112266 32.78° C 58% - 0 mm - - -
1788111791 32.22° C 58% - 0 mm - - -
1788111663 32.22° C 58% - 0 mm - - -
1788100946 28.33° C 74% - 0 mm - - -
1788099994 28.33° C 77% - 0 mm - - -
1788093686 23.89° C 92% - 0 mm - - -
1788090096 22.22° C 92% - 0 mm - - -
1788090061 22.22° C 92% - 0 mm - - -
1788086203 22.78° C 92% - 0 mm - - -
1788086194 22.78° C 92% - 0 mm - - -
1788084018 22.78° C 91% - 0 mm - - -
1788081964 22.22° C 91% - 0 mm - - -
1788080030 22.22° C 89% - 0 mm - - -
1788076646 22.78° C 88% - 0 mm - - -
1788035557 32.22° C 51% - 0 mm - - -
1788035315 32.22° C 50% - 0 mm - - -
1788033502 32.22° C 50% - 0 mm - - -

* Rain since midnight (hover to see other rain measurements)
** Current wind speed in m/s (hover to see current wind gust speed)